Time;durP1;ratioP1;P1;durP2;ratioP2;P2;SDS_P1;SDS_P2;PMS_P1;PMS_P2;Temp;Humidity;BMP_temperature;BMP_pressure;BME280_temperature;BME280_humidity;BME280_pressure;Samples;Min_cycle;Max_cycle;Signal;HPM_P1;HPM_P2
2022/01/13 00:00:53;;;;;;;9.60;7.10;;;;;;;3.70;44.97;100951.18;1816666;78;21025;-63
2022/01/13 00:03:20;;;;;;;9.78;7.42;;;;;;;3.69;44.98;100950.34;1813069;77;21892;-64
2022/01/13 00:05:46;;;;;;;9.55;7.95;;;;;;;3.69;44.97;100938.52;1814935;78;21037;-63
2022/01/13 00:08:12;;;;;;;12.50;8.18;;;;;;;3.68;44.96;100946.02;1809029;77;21638;-64
2022/01/13 00:10:39;;;;;;;10.28;7.10;;;;;;;3.67;44.94;100956.17;1809553;77;21012;-64
2022/01/13 00:13:08;;;;;;;9.60;8.05;;;;;;;3.68;44.96;100945.17;1812344;77;21080;-64
2022/01/13 00:15:45;;;;;;;10.18;7.33;;;;;;;3.67;44.96;100943.47;1810742;78;21190;-64
2022/01/13 00:18:16;;;;;;;10.82;7.83;;;;;;;3.68;44.93;100955.69;1814981;77;20987;-63
2022/01/13 00:21:13;;;;;;;11.03;7.45;;;;;;;3.66;44.94;100954.46;1840098;77;21469;-63
2022/01/13 00:25:54;;;;;;;10.68;7.70;;;;;;;3.66;44.91;100949.20;1839529;77;21651;-64
2022/01/13 00:28:21;;;;;;;10.58;8.63;;;;;;;3.66;44.91;100948.38;1830110;77;21211;-63
2022/01/13 00:30:52;;;;;;;10.53;7.60;;;;;;;3.66;44.88;100957.57;1836617;77;22394;-64
2022/01/13 00:33:22;;;;;;;11.35;7.80;;;;;;;3.65;44.88;100957.18;1840249;77;21519;-64
2022/01/13 00:35:46;;;;;;;9.25;7.25;;;;;;;3.64;44.87;100951.56;1770894;80;21050;-63
2022/01/13 00:38:12;;;;;;;11.18;7.83;;;;;;;3.63;44.87;100950.73;1772772;79;21057;-64
2022/01/13 00:40:39;;;;;;;9.88;7.62;;;;;;;3.63;44.85;100949.86;1776252;79;22331;-63
2022/01/13 00:43:05;;;;;;;10.45;7.45;;;;;;;3.62;44.85;100949.02;1802117;79;21022;-63
2022/01/13 00:45:31;;;;;;;11.53;8.00;;;;;;;3.62;44.85;100946.39;1787410;79;21080;-64
2022/01/13 00:47:58;;;;;;;10.30;7.37;;;;;;;3.62;44.83;100945.56;1772298;79;21517;-63
2022/01/13 00:50:24;;;;;;;10.40;7.80;;;;;;;3.61;44.83;100936.84;1772071;80;21119;-64
2022/01/13 00:52:50;;;;;;;10.95;7.83;;;;;;;3.60;44.83;100945.64;1795467;79;21125;-63
2022/01/13 00:55:21;;;;;;;9.83;7.42;;;;;;;3.60;44.81;100940.39;1802177;79;21668;-63
2022/01/13 00:57:45;;;;;;;11.20;8.50;;;;;;;3.61;44.80;100935.97;1802533;79;21077;-63
2022/01/13 01:00:12;;;;;;;9.98;7.20;;;;;;;3.60;44.80;100936.45;1797045;79;21522;-65
2022/01/13 01:02:39;;;;;;;10.00;7.65;;;;;;;3.60;44.78;100936.45;1792318;79;21116;-64
2022/01/13 01:05:05;;;;;;;10.53;7.87;;;;;;;3.60;44.76;100931.19;1772843;79;21071;-63
2022/01/13 01:07:32;;;;;;;11.68;8.30;;;;;;;3.58;44.77;100930.45;1769597;80;21519;-64
2022/01/13 01:10:02;;;;;;;12.15;8.23;;;;;;;3.58;44.76;100923.04;1769143;79;21072;-64
2022/01/13 01:12:27;;;;;;;9.90;7.87;;;;;;;3.58;44.74;100921.25;1766266;80;21057;-64
2022/01/13 01:14:57;;;;;;;12.45;9.15;;;;;;;3.58;44.74;100928.30;1847444;77;21037;-63
2022/01/13 01:17:22;;;;;;;12.50;8.00;;;;;;;3.58;44.72;100929.13;1840230;77;21045;-64
2022/01/13 01:19:51;;;;;;;12.70;8.83;;;;;;;3.57;44.73;100922.17;1736069;80;21056;-63
2022/01/13 01:27:23;;;;;;;12.00;8.38;;;;;;;3.56;44.68;100920.50;1802282;79;21088;-64
2022/01/13 01:29:56;;;;;;;12.45;8.85;;;;;;;3.56;44.69;100915.72;1802323;79;21125;-64
2022/01/13 01:32:20;;;;;;;12.33;8.60;;;;;;;3.53;44.68;100914.11;1813775;79;21010;-64
2022/01/13 01:34:56;;;;;;;11.95;9.10;;;;;;;3.54;44.68;100922.38;1803552;79;21058;-64
2022/01/13 01:37:26;;;;;;;11.15;8.30;;;;;;;3.53;44.67;100920.67;1791061;79;21065;-63
2022/01/13 01:39:54;;;;;;;11.53;8.40;;;;;;;3.53;44.67;100918.05;1810641;79;21073;-63
2022/01/13 01:42:21;;;;;;;12.13;9.13;;;;;;;3.53;44.67;100919.36;1795419;79;21189;-63
2022/01/13 01:44:52;;;;;;;11.55;8.98;;;;;;;3.51;44.65;100921.23;1796124;79;21519;-63
2022/01/13 01:47:19;;;;;;;11.70;8.65;;;;;;;3.52;44.67;100926.41;1803762;79;21073;-63
2022/01/13 01:49:48;;;;;;;10.80;8.50;;;;;;;3.51;44.63;100925.18;1799362;79;21037;-63
2022/01/13 01:52:17;;;;;;;12.23;8.43;;;;;;;3.52;44.62;100917.69;1808818;79;21583;-63
2022/01/13 01:54:44;;;;;;;10.35;7.92;;;;;;;3.51;44.59;100909.41;1797214;79;22426;-63
2022/01/13 01:57:10;;;;;;;12.88;8.30;;;;;;;3.51;44.59;100906.79;1788930;79;21054;-63
2022/01/13 01:59:39;;;;;;;11.55;8.65;;;;;;;3.50;44.59;100905.95;1794508;79;21045;-63
2022/01/13 02:02:06;;;;;;;11.80;8.18;;;;;;;3.50;44.59;100911.20;1787657;79;21708;-64
2022/01/13 02:04:33;;;;;;;11.93;8.33;;;;;;;3.49;44.58;100896.37;1810575;79;21038;-64
2022/01/13 02:07:03;;;;;;;10.93;8.60;;;;;;;3.49;44.58;100894.22;1805279;79;21077;-63
2022/01/13 02:09:28;;;;;;;12.58;8.90;;;;;;;3.48;44.58;100892.06;1802015;78;21081;-64
2022/01/13 02:11:58;;;;;;;11.85;8.93;;;;;;;3.48;44.57;100891.23;1807469;79;21056;-64
2022/01/13 02:17:09;;;;;;;11.38;8.78;;;;;;;3.48;44.57;100880.72;1791732;79;21015;-63
2022/01/13 02:19:41;;;;;;;13.48;8.85;;;;;;;3.47;44.56;100875.91;1791778;79;21325;-63
2022/01/13 02:22:07;;;;;;;11.68;8.43;;;;;;;3.47;44.56;100880.33;1780992;79;21023;-64
2022/01/13 02:24:34;;;;;;;13.22;8.58;;;;;;;3.47;44.57;100889.53;1777676;79;21486;-63
2022/01/13 02:27:01;;;;;;;11.08;8.23;;;;;;;3.48;44.56;100891.23;1770332;80;21021;-64
2022/01/13 02:29:28;;;;;;;10.53;7.70;;;;;;;3.47;44.57;100887.73;1839704;77;20986;-64
2022/01/13 02:31:55;;;;;;;12.90;8.50;;;;;;;3.47;44.56;100888.22;1823231;77;21525;-64
2022/01/13 02:34:24;;;;;;;11.10;8.38;;;;;;;3.47;44.57;100898.72;1836480;77;21522;-64
2022/01/13 02:36:54;;;;;;;11.20;7.95;;;;;;;3.47;44.57;100894.30;1832990;77;21013;-63
2022/01/13 02:39:24;;;;;;;10.53;7.80;;;;;;;3.47;44.57;100889.53;1836554;77;20998;-63
2022/01/13 02:41:51;;;;;;;9.93;7.53;;;;;;;3.47;44.57;100880.33;1832911;77;21070;-62
2022/01/13 02:44:21;;;;;;;10.82;7.92;;;;;;;3.46;44.54;100886.55;1845353;77;21121;-63
2022/01/13 02:49:18;;;;;;;12.33;8.95;;;;;;;3.45;44.54;100882.21;1762331;80;21506;-63
2022/01/13 02:51:46;;;;;;;9.58;7.42;;;;;;;3.46;44.57;100875.55;1781469;80;21598;-62
2022/01/13 02:54:12;;;;;;;11.03;7.90;;;;;;;3.46;44.57;100866.84;1784997;79;21587;-63
2022/01/13 02:56:39;;;;;;;10.23;7.67;;;;;;;3.47;44.55;100856.69;1772480;80;21052;-64
2022/01/13 02:59:06;;;;;;;9.38;7.30;;;;;;;3.46;44.53;100854.54;1781340;79;21466;-63
2022/01/13 03:01:33;;;;;;;10.48;7.45;;;;;;;3.46;44.53;100853.23;1775390;79;21068;-65
2022/01/13 03:04:05;;;;;;;11.88;8.13;;;;;;;3.45;44.53;100848.06;1836049;77;21089;-64
2022/01/13 03:06:35;;;;;;;11.50;7.97;;;;;;;3.45;44.52;100838.39;1820858;77;21045;-63
2022/01/13 03:09:00;;;;;;;9.48;7.47;;;;;;;3.44;44.53;100845.05;1840127;77;22029;-65
2022/01/13 03:11:36;;;;;;;10.82;7.95;;;;;;;3.44;44.50;100852.48;1844490;77;21049;-64
2022/01/13 03:14:01;;;;;;;11.00;7.70;;;;;;;3.45;44.50;100859.88;1828262;77;21025;-63
2022/01/13 03:16:28;;;;;;;9.65;7.28;;;;;;;3.45;44.50;100862.03;1831891;77;21049;-62
2022/01/13 03:18:54;;;;;;;10.00;7.47;;;;;;;3.44;44.50;100853.79;1828019;77;21037;-63
2022/01/13 03:21:21;;;;;;;10.72;7.17;;;;;;;3.44;44.47;100856.86;1809629;79;21214;-63
2022/01/13 03:23:47;;;;;;;9.55;8.00;;;;;;;3.44;44.47;100846.36;1796936;79;21573;-63
2022/01/13 03:26:13;;;;;;;11.05;7.65;;;;;;;3.44;44.47;100851.16;1783766;79;21104;-63
2022/01/13 03:28:55;;;;;;;11.43;7.35;;;;;;;3.44;44.45;100831.91;1795534;79;21081;-64
2022/01/13 03:34:06;;;;;;;10.43;7.63;;;;;;;3.48;44.44;100836.06;1860436;76;25530;-63
2022/01/13 03:36:33;;;;;;;10.75;7.42;;;;;;;3.43;44.40;100832.86;1821225;78;21040;-65
2022/01/13 03:39:01;;;;;;;10.85;7.20;;;;;;;3.43;44.43;100838.12;1796210;77;21137;-63
2022/01/13 03:41:28;;;;;;;10.45;7.25;;;;;;;3.42;44.39;100841.22;1814231;78;21532;-63
2022/01/13 03:43:55;;;;;;;10.18;6.95;;;;;;;3.42;44.43;100836.41;1799612;78;20974;-62
2022/01/13 03:46:22;;;;;;;9.35;7.40;;;;;;;3.42;44.40;100825.91;1804648;78;21039;-63
2022/01/13 03:48:48;;;;;;;9.63;6.95;;;;;;;3.40;44.40;100827.34;1806894;78;21068;-63
2022/01/13 03:51:14;;;;;;;9.40;7.28;;;;;;;3.40;44.38;100835.67;1818189;78;21301;-64
2022/01/13 03:54:35;;;;;;;10.58;6.80;;;;;;;3.40;44.39;100822.53;1808415;78;20980;-63
2022/01/13 03:57:46;;;;;;;8.58;6.65;;;;;;;3.39;44.38;100837.45;1808110;77;21499;-63
2022/01/13 04:00:51;;;;;;;9.45;6.72;;;;;;;3.38;44.38;100836.23;1815525;78;21002;-63
2022/01/13 04:03:18;;;;;;;9.45;6.97;;;;;;;3.36;44.39;100837.64;1804010;78;21038;-63
2022/01/13 04:06:16;;;;;;;9.15;7.03;;;;;;;3.33;44.39;100839.16;1812314;78;21549;-63
2022/01/13 04:08:48;;;;;;;9.43;6.55;;;;;;;3.31;44.39;100841.88;1818921;77;21040;-63
2022/01/13 04:11:21;;;;;;;8.45;6.42;;;;;;;3.30;44.39;100840.20;1819649;78;21054;-63
2022/01/13 04:16:19;;;;;;;10.10;6.72;;;;;;;3.29;44.40;100846.38;1806777;77;21048;-63
2022/01/13 04:18:48;;;;;;;9.65;7.10;;;;;;;3.30;44.40;100852.47;1834015;77;21097;-63
2022/01/13 04:21:16;;;;;;;9.90;6.65;;;;;;;3.28;44.41;100848.64;1820556;77;21041;-63
2022/01/13 04:23:43;;;;;;;9.35;7.10;;;;;;;3.29;44.40;100835.88;1815402;78;21025;-63
2022/01/13 04:26:09;;;;;;;9.08;6.97;;;;;;;3.29;44.39;100830.62;1811479;78;21029;-64
2022/01/13 04:28:36;;;;;;;9.28;6.58;;;;;;;3.29;44.38;100829.78;1819467;77;21010;-62
2022/01/13 04:31:03;;;;;;;10.85;6.33;;;;;;;3.28;44.35;100823.70;1811501;77;21202;-63
2022/01/13 04:33:34;;;;;;;10.75;6.50;;;;;;;3.28;44.35;100822.38;1811430;77;21005;-65
2022/01/13 04:36:01;;;;;;;9.70;7.10;;;;;;;3.29;44.34;100820.59;1815238;77;21123;-65
2022/01/13 04:38:28;;;;;;;9.45;7.20;;;;;;;3.29;44.33;100816.17;1817964;77;21045;-66
2022/01/13 04:40:56;;;;;;;8.50;6.53;;;;;;;3.29;44.33;100808.77;1817486;78;20986;-63
2022/01/13 04:43:24;;;;;;;9.43;6.80;;;;;;;3.28;44.33;100815.81;1812129;77;21126;-63
2022/01/13 04:45:50;;;;;;;9.03;6.70;;;;;;;3.29;44.31;100810.09;1832309;77;21490;-64
2022/01/13 04:48:17;;;;;;;9.38;6.65;;;;;;;3.27;44.31;100791.79;1823887;77;21024;-66
2022/01/13 04:50:43;;;;;;;7.78;5.92;;;;;;;3.27;44.29;100785.22;1821278;78;21340;-63
2022/01/13 04:53:10;;;;;;;9.88;7.22;;;;;;;3.28;44.29;100783.44;1818001;78;21060;-66
2022/01/13 04:55:37;;;;;;;8.45;6.40;;;;;;;3.27;44.27;100787.85;1818780;78;21808;-63
2022/01/13 04:58:07;;;;;;;8.70;6.80;;;;;;;3.27;44.26;100777.34;1808899;77;20991;-64
2022/01/13 05:00:33;;;;;;;11.35;7.65;;;;;;;3.27;44.24;100785.22;1813901;78;21080;-63
2022/01/13 05:03:00;;;;;;;10.35;7.33;;;;;;;3.27;44.22;100791.79;1817389;77;20982;-63
2022/01/13 05:05:26;;;;;;;8.40;7.17;;;;;;;3.27;44.21;100787.85;1818937;78;21013;-65
2022/01/13 05:07:53;;;;;;;11.45;7.90;;;;;;;3.26;44.17;100776.95;1747858;81;21112;-63
2022/01/13 05:10:19;;;;;;;10.88;7.72;;;;;;;3.26;44.18;100778.75;1761120;81;21038;-64
2022/01/13 05:12:48;;;;;;;10.13;7.75;;;;;;;3.26;44.17;100771.70;1754708;80;21066;-63
2022/01/13 05:15:21;;;;;;;9.58;7.95;;;;;;;3.26;44.13;100768.24;1750522;81;21006;-63
2022/01/13 05:20:19;;;;;;;11.35;8.43;;;;;;;3.24;44.12;100752.58;1745648;81;21051;-64
2022/01/13 05:22:44;;;;;;;10.08;7.95;;;;;;;3.24;44.12;100743.38;1745281;81;21461;-64
2022/01/13 05:25:10;;;;;;;11.20;7.75;;;;;;;3.24;44.10;100734.67;1767835;80;21588;-65
2022/01/13 05:27:36;;;;;;;11.40;8.35;;;;;;;3.23;44.10;100725.95;1760579;81;21148;-63
2022/01/13 05:30:05;;;;;;;11.45;8.35;;;;;;;3.23;44.08;100732.52;1759106;80;21604;-63
2022/01/13 05:32:31;;;;;;;10.78;8.48;;;;;;;3.22;44.06;100730.82;1755194;79;21111;-63
2022/01/13 05:34:58;;;;;;;10.82;7.97;;;;;;;3.22;44.04;100724.25;1781727;79;21470;-62
2022/01/13 05:37:24;;;;;;;12.10;8.58;;;;;;;3.22;44.03;100732.13;1749559;80;21050;-64
2022/01/13 05:39:50;;;;;;;10.08;8.15;;;;;;;3.21;44.04;100729.16;1757293;81;21085;-64
2022/01/13 05:42:17;;;;;;;11.28;8.55;;;;;;;3.21;44.03;100720.44;1758270;81;21037;-65
2022/01/13 05:44:43;;;;;;;11.00;8.15;;;;;;;3.20;44.00;100719.57;1755877;81;21067;-65
2022/01/13 05:47:12;;;;;;;12.78;8.98;;;;;;;3.19;44.00;100723.60;1757470;80;21073;-65
2022/01/13 05:49:40;;;;;;;10.53;8.40;;;;;;;3.18;43.99;100717.52;1754753;81;21022;-63
2022/01/13 05:52:11;;;;;;;10.55;8.43;;;;;;;3.18;43.99;100728.02;1755257;81;21058;-64
2022/01/13 05:54:38;;;;;;;12.53;8.55;;;;;;;3.18;43.97;100721.45;1750267;80;21081;-65
2022/01/13 05:57:04;;;;;;;9.75;8.03;;;;;;;3.17;43.97;100727.66;1766219;80;21122;-64
2022/01/13 05:59:31;;;;;;;12.10;9.08;;;;;;;3.17;43.96;100732.91;1765439;80;21050;-64
2022/01/13 06:01:58;;;;;;;12.20;9.10;;;;;;;3.17;43.96;100737.30;1762779;80;21597;-65
2022/01/13 06:04:24;;;;;;;11.30;8.90;;;;;;;3.15;43.94;100732.17;1760904;80;21050;-63
2022/01/13 06:06:50;;;;;;;11.97;9.58;;;;;;;3.14;43.95;100726.05;1769698;80;21018;-64
2022/01/13 06:09:17;;;;;;;12.15;8.95;;;;;;;3.15;43.93;100722.50;1766284;80;21112;-63
2022/01/13 06:11:52;;;;;;;10.38;8.95;;;;;;;3.14;43.93;100729.16;1758075;80;21022;-65
2022/01/13 06:14:11;;;;;;;11.88;8.73;;;;;;;3.14;43.92;100733.09;1751213;80;21053;-64
2022/01/13 06:16:38;;;;;;;13.35;8.98;;;;;;;3.14;43.92;100738.34;1753179;80;21005;-64
2022/01/13 06:19:05;;;;;;;11.73;8.53;;;;;;;3.14;43.94;100734.41;1760241;80;21061;-65
2022/01/13 06:21:31;;;;;;;11.80;9.00;;;;;;;3.14;43.91;100740.49;1749873;80;21138;-64
2022/01/13 06:23:58;;;;;;;10.60;8.80;;;;;;;3.14;43.92;100739.18;1741865;80;21125;-64
2022/01/13 06:26:24;;;;;;;11.00;7.85;;;;;;;3.09;43.92;100729.90;1756104;80;21946;-64
2022/01/13 06:28:51;;;;;;;10.50;9.00;;;;;;;3.14;43.93;100735.72;1756574;80;21034;-64
2022/01/13 06:31:17;;;;;;;11.78;9.43;;;;;;;3.14;43.92;100724.73;1760845;80;21061;-64
2022/01/13 06:33:43;;;;;;;11.97;9.73;;;;;;;3.14;43.93;100722.59;1766067;80;23316;-64
2022/01/13 06:36:10;;;;;;;12.43;9.58;;;;;;;3.17;43.90;100730.73;1759443;80;20987;-63
2022/01/13 06:38:37;;;;;;;13.90;10.20;;;;;;;3.15;43.91;100717.73;1766244;78;21517;-67
2022/01/13 06:41:03;;;;;;;13.85;10.48;;;;;;;3.15;43.92;100711.16;1781897;78;21078;-64
2022/01/13 06:43:31;;;;;;;13.08;9.38;;;;;;;3.15;43.92;100717.25;1765487;78;21124;-64
2022/01/13 06:45:57;;;;;;;13.83;10.78;;;;;;;3.15;43.92;100704.13;1796924;78;21018;-63
2022/01/13 06:48:24;;;;;;;12.37;10.18;;;;;;;3.15;43.92;100688.36;1756023;78;20998;-64
2022/01/13 06:50:50;;;;;;;13.72;10.35;;;;;;;3.14;43.92;100672.70;1765630;78;21014;-63
2022/01/13 06:53:16;;;;;;;14.28;10.58;;;;;;;3.18;43.93;100678.13;1772358;78;21018;-64
2022/01/13 06:55:43;;;;;;;14.70;10.50;;;;;;;3.18;43.91;100674.66;1756484;78;21159;-64
2022/01/13 06:58:09;;;;;;;13.45;10.58;;;;;;;3.18;43.93;100679.92;1763951;80;21034;-67
2022/01/13 07:00:37;;;;;;;13.75;10.40;;;;;;;3.18;43.93;100682.06;1769579;78;22192;-65
2022/01/13 07:03:04;;;;;;;13.53;10.30;;;;;;;3.18;43.94;100672.04;1770348;78;21037;-65
2022/01/13 07:05:32;;;;;;;14.33;11.10;;;;;;;3.19;43.97;100670.63;1756161;79;21014;-65
2022/01/13 07:07:58;;;;;;;14.87;11.75;;;;;;;3.20;43.97;100667.05;1751700;79;21061;-64
2022/01/13 07:10:24;;;;;;;16.42;12.05;;;;;;;3.22;43.98;100670.90;1760430;79;21762;-65
2022/01/13 07:12:51;;;;;;;16.30;11.73;;;;;;;3.22;44.00;100660.39;1763786;80;21089;-64
2022/01/13 07:15:18;;;;;;;14.87;11.80;;;;;;;3.24;44.00;100665.08;1766740;79;20984;-64
2022/01/13 07:17:45;;;;;;;15.80;11.63;;;;;;;3.23;43.98;100645.86;1758795;80;21049;-64
2022/01/13 07:20:11;;;;;;;15.90;11.55;;;;;;;3.24;44.00;100635.70;1737377;79;21064;-64
2022/01/13 07:22:39;;;;;;;16.55;11.78;;;;;;;3.26;44.00;100635.62;1767183;78;21061;-66
2022/01/13 07:25:08;;;;;;;16.77;12.07;;;;;;;3.26;43.99;100631.67;1772580;78;21073;-67
2022/01/13 07:27:34;;;;;;;15.65;11.73;;;;;;;3.27;44.37;100617.63;1749190;80;21000;-65
2022/01/13 07:30:01;;;;;;;14.83;11.15;;;;;;;3.28;44.51;100618.84;1751491;80;21093;-65
2022/01/13 07:32:27;;;;;;;16.62;13.00;;;;;;;3.30;44.56;100619.58;1746681;80;21050;-65
2022/01/13 07:34:54;;;;;;;16.45;12.53;;;;;;;3.31;44.55;100613.37;1754039;80;21168;-65
2022/01/13 07:37:24;;;;;;;16.27;12.82;;;;;;;3.33;44.57;100609.34;1763542;79;21010;-63
2022/01/13 07:39:49;;;;;;;16.97;13.22;;;;;;;3.34;44.51;100611.88;1769123;80;21044;-64
2022/01/13 07:42:16;;;;;;;17.55;12.40;;;;;;;3.37;44.50;100612.61;1770817;79;21078;-64
2022/01/13 07:44:43;;;;;;;18.42;13.38;;;;;;;3.38;44.47;100602.45;1766891;80;21080;-65
2022/01/13 07:47:09;;;;;;;19.42;13.50;;;;;;;3.40;44.45;100579.55;1776376;79;21082;-66
2022/01/13 07:49:36;;;;;;;16.07;12.73;;;;;;;3.41;44.44;100574.20;1776535;79;21522;-67
2022/01/13 07:52:03;;;;;;;19.77;13.72;;;;;;;3.43;44.38;100567.55;1767801;80;21113;-64
2022/01/13 07:54:31;;;;;;;17.37;12.73;;;;;;;3.44;44.35;100556.94;1766700;80;21587;-65
2022/01/13 07:56:59;;;;;;;19.20;14.05;;;;;;;3.46;44.36;100560.30;1767149;80;21093;-64
2022/01/13 07:59:28;;;;;;;19.42;14.28;;;;;;;3.47;44.32;100564.59;1775736;80;21124;-63
2022/01/13 08:02:00;;;;;;;18.70;13.20;;;;;;;3.49;44.31;100567.13;1757242;80;21018;-64
2022/01/13 08:04:27;;;;;;;17.98;13.20;;;;;;;3.49;44.31;100560.08;1761948;80;21057;-63
2022/01/13 08:06:53;;;;;;;19.02;14.13;;;;;;;3.51;44.30;100553.42;1767000;80;21057;-64
2022/01/13 08:09:22;;;;;;;20.10;14.87;;;;;;;3.53;44.29;100560.72;1772977;80;21048;-63
2022/01/13 08:11:50;;;;;;;20.70;14.40;;;;;;;3.54;44.27;100564.57;1776601;80;21041;-63
2022/01/13 08:14:16;;;;;;;19.95;15.00;;;;;;;3.57;44.27;100566.62;1772996;79;21683;-64
2022/01/13 08:16:44;;;;;;;19.05;14.98;;;;;;;3.57;44.25;100567.45;1766408;80;21026;-63
2022/01/13 08:21:56;;;;;;;21.80;15.00;;;;;;;3.62;44.23;100569.31;1767499;80;21058;-62
2022/01/13 08:24:22;;;;;;;18.77;14.83;;;;;;;3.65;44.23;100554.66;1772100;80;21084;-64
2022/01/13 08:26:49;;;;;;;20.30;14.70;;;;;;;3.67;44.22;100559.79;1767993;80;21088;-63
2022/01/13 08:29:16;;;;;;;20.40;14.83;;;;;;;3.69;44.20;100551.33;1758992;79;21100;-63
2022/01/13 08:31:42;;;;;;;21.70;15.55;;;;;;;3.72;44.19;100548.02;1764366;79;21505;-63
2022/01/13 08:34:09;;;;;;;20.65;15.28;;;;;;;3.74;44.21;100540.04;1748159;79;21092;-63
2022/01/13 08:36:35;;;;;;;21.37;15.65;;;;;;;3.76;44.19;100523.69;1741396;80;21351;-63
2022/01/13 08:39:02;;;;;;;19.10;14.23;;;;;;;3.79;44.17;100537.12;1750327;80;21002;-63
2022/01/13 08:41:28;;;;;;;21.42;15.63;;;;;;;3.81;44.17;100525.55;1768763;80;21004;-62
2022/01/13 08:43:55;;;;;;;19.05;14.78;;;;;;;3.84;44.15;100533.68;1761893;79;21077;-64
2022/01/13 08:46:23;;;;;;;19.80;15.08;;;;;;;3.87;44.14;100529.54;1763201;80;21016;-63
2022/01/13 08:48:54;;;;;;;17.80;14.38;;;;;;;3.89;44.14;100519.76;1754770;80;21140;-62
2022/01/13 08:51:20;;;;;;;21.07;15.28;;;;;;;3.92;44.14;100515.58;1750359;80;21349;-63
2022/01/13 08:53:47;;;;;;;21.33;15.50;;;;;;;3.94;44.13;100511.09;1765590;79;21009;-64
2022/01/13 08:56:14;;;;;;;21.07;16.12;;;;;;;3.96;44.09;100517.53;1759822;79;21077;-64
2022/01/13 08:58:41;;;;;;;20.95;15.93;;;;;;;3.99;44.10;100512.07;1770657;79;21559;-63
2022/01/13 09:01:07;;;;;;;20.80;15.60;;;;;;;4.01;44.09;100497.86;1745913;80;21223;-63
2022/01/13 09:03:35;;;;;;;21.48;15.58;;;;;;;4.03;44.09;100479.36;1768599;78;21095;-63
2022/01/13 09:06:02;;;;;;;19.87;15.38;;;;;;;4.05;44.09;100485.34;1765089;80;21091;-64
2022/01/13 09:08:30;;;;;;;22.77;16.77;;;;;;;4.06;44.07;100475.20;1767409;80;21060;-62
2022/01/13 09:10:56;;;;;;;19.42;14.65;;;;;;;4.06;44.07;100473.41;1767795;78;21084;-63
2022/01/13 09:13:23;;;;;;;20.30;15.10;;;;;;;4.08;44.05;100464.94;1771640;78;21024;-63
2022/01/13 09:15:58;;;;;;;19.55;14.50;;;;;;;4.10;44.07;100469.61;1746073;80;21093;-63
2022/01/13 09:18:30;;;;;;;22.48;16.12;;;;;;;4.12;44.06;100470.34;1752153;80;21073;-62
2022/01/13 09:20:47;;;;;;;21.52;15.98;;;;;;;4.15;44.07;100467.95;1753233;80;21806;-62
2022/01/13 09:23:13;;;;;;;21.87;16.45;;;;;;;4.14;44.05;100472.38;1746965;80;21067;-63
2022/01/13 09:25:39;;;;;;;21.40;16.05;;;;;;;4.17;44.07;100485.78;1748273;79;21514;-64
2022/01/13 09:28:07;;;;;;;19.65;14.95;;;;;;;4.18;44.06;100482.22;1761780;79;21105;-63
2022/01/13 09:30:34;;;;;;;20.05;14.85;;;;;;;4.20;44.07;100463.70;1763946;79;21538;-63
2022/01/13 09:33:00;;;;;;;19.40;15.20;;;;;;;4.22;44.07;100452.59;1760661;80;21702;-63
2022/01/13 09:35:27;;;;;;;21.68;15.80;;;;;;;4.23;44.05;100426.64;1768261;80;21057;-62
2022/01/13 09:37:54;;;;;;;20.95;15.75;;;;;;;4.23;44.05;100419.62;1770033;80;21078;-62
2022/01/13 09:40:21;;;;;;;18.90;15.48;;;;;;;4.24;44.05;100409.92;1762390;79;21537;-64
2022/01/13 09:42:47;;;;;;;21.25;16.55;;;;;;;4.26;44.04;100393.56;1780452;79;21020;-62
2022/01/13 09:45:15;;;;;;;20.52;16.62;;;;;;;4.27;44.06;100401.83;1771303;80;21012;-62
2022/01/13 09:47:43;;;;;;;20.30;15.68;;;;;;;4.28;44.04;100387.23;1767895;80;21076;-64
2022/01/13 09:50:13;;;;;;;20.55;15.40;;;;;;;4.32;44.04;100382.59;1761400;79;21813;-62
2022/01/13 09:52:40;;;;;;;21.02;15.58;;;;;;;4.34;44.01;100391.20;1766136;80;21070;-64
2022/01/13 09:55:08;;;;;;;19.30;15.20;;;;;;;4.37;44.01;100387.53;1760081;80;21093;-62
2022/01/13 09:57:34;;;;;;;20.10;15.70;;;;;;;4.39;44.01;100391.72;1770744;79;21070;-63
2022/01/13 10:00:01;;;;;;;22.05;17.27;;;;;;;4.40;43.99;100382.86;1766855;79;21037;-62
2022/01/13 10:02:31;;;;;;;21.37;15.78;;;;;;;4.43;43.99;100377.38;1764525;80;21091;-63
2022/01/13 10:04:57;;;;;;;20.43;16.12;;;;;;;4.44;43.99;100369.00;1762664;80;21022;-63
2022/01/13 10:07:34;;;;;;;23.83;17.12;;;;;;;4.45;43.98;100366.27;1765433;80;21216;-63
2022/01/13 10:10:05;;;;;;;22.02;17.17;;;;;;;4.47;43.99;100353.00;1760747;79;21073;-62
2022/01/13 10:12:40;;;;;;;24.75;17.75;;;;;;;4.48;43.96;100344.14;1755291;80;21045;-64
2022/01/13 10:18:03;;;;;;;21.02;15.90;;;;;;;4.52;43.99;100316.19;1764047;80;21076;-63
2022/01/13 10:20:30;;;;;;;21.62;16.35;;;;;;;4.53;43.97;100297.28;1759773;80;21009;-63
2022/01/13 10:23:09;;;;;;;23.73;17.23;;;;;;;4.55;43.98;100289.28;1786743;80;21495;-64
2022/01/13 10:25:43;;;;;;;20.62;16.60;;;;;;;4.57;43.98;100288.69;1772904;79;21076;-63
2022/01/13 10:28:19;;;;;;;21.82;16.67;;;;;;;4.58;43.97;100291.66;1752520;80;21105;-62
2022/01/13 10:30:51;;;;;;;22.32;17.12;;;;;;;4.60;43.99;100284.52;1768604;81;21206;-62
2022/01/13 10:33:24;;;;;;;22.55;17.45;;;;;;;4.62;44.00;100284.75;1753912;80;22941;-63
2022/01/13 10:35:53;;;;;;;23.65;17.27;;;;;;;4.65;43.96;100270.51;1765871;80;21045;-63
2022/01/13 10:38:20;;;;;;;23.22;17.48;;;;;;;4.68;43.98;100265.02;1750849;81;21095;-63
2022/01/13 10:40:48;;;;;;;24.07;17.07;;;;;;;4.69;43.96;100279.39;1777634;80;21194;-67
2022/01/13 10:43:17;;;;;;;22.62;18.12;;;;;;;4.72;43.98;100282.26;1754527;81;21058;-66
2022/01/13 10:45:53;;;;;;;21.95;17.55;;;;;;;4.75;43.96;100275.42;1731147;81;21031;-63
2022/01/13 10:48:25;;;;;;;20.97;16.62;;;;;;;4.78;43.94;100268.62;1761760;80;21041;-65
2022/01/13 10:51:01;;;;;;;23.92;16.73;;;;;;;4.81;43.95;100260.95;1753517;81;21584;-65
2022/01/13 10:53:42;;;;;;;20.55;16.93;;;;;;;4.82;43.94;100265.27;1760516;80;21129;-66
2022/01/13 10:56:11;;;;;;;21.85;16.60;;;;;;;4.84;43.92;100253.66;1759534;80;21061;-67
2022/01/13 10:58:53;;;;;;;22.85;17.17;;;;;;;4.86;43.93;100243.84;1763123;80;21045;-66
2022/01/13 11:01:20;;;;;;;22.30;16.77;;;;;;;4.88;43.95;100240.61;1752042;79;21050;-64
2022/01/13 11:03:47;;;;;;;20.52;16.60;;;;;;;4.89;43.95;100230.45;1760803;80;21136;-68
2022/01/13 11:06:14;;;;;;;21.77;17.30;;;;;;;4.91;43.95;100214.06;1753395;80;21673;-63
2022/01/13 11:08:48;;;;;;;22.50;16.97;;;;;;;4.93;43.97;100214.78;1771127;80;21046;-64
2022/01/13 11:11:21;;;;;;;24.15;18.35;;;;;;;4.95;43.94;100211.20;1768913;80;21102;-63
2022/01/13 11:13:56;;;;;;;21.97;17.32;;;;;;;4.98;43.92;100206.50;1769604;80;21085;-66
2022/01/13 11:16:24;;;;;;;22.67;17.60;;;;;;;4.95;43.94;100171.22;1762489;80;21552;-65
2022/01/13 11:18:51;;;;;;;22.55;17.55;;;;;;;5.01;43.96;100177.31;1772187;80;21098;-64
2022/01/13 11:21:18;;;;;;;22.10;16.93;;;;;;;5.04;43.95;100173.13;1765841;80;21555;-64
2022/01/13 11:23:47;;;;;;;21.97;17.15;;;;;;;5.05;43.97;100169.52;1756913;80;21053;-65
2022/01/13 11:26:14;;;;;;;21.23;17.23;;;;;;;5.07;43.96;100165.45;1773915;80;21104;-68
2022/01/13 11:28:40;;;;;;;21.70;17.07;;;;;;;5.08;43.95;100158.75;1773576;80;21045;-67
2022/01/13 11:31:08;;;;;;;24.00;17.80;;;;;;;5.10;43.96;100157.33;1771401;80;21500;-66
2022/01/13 11:33:35;;;;;;;22.90;17.05;;;;;;;5.12;43.97;100151.45;1757647;80;21092;-67
2022/01/13 11:36:02;;;;;;;20.30;16.75;;;;;;;5.13;43.97;100144.72;1734697;80;21070;-67
2022/01/13 11:38:31;;;;;;;21.27;16.62;;;;;;;5.16;43.98;100141.02;1777233;78;21073;-72
2022/01/13 11:41:03;;;;;;;20.60;16.85;;;;;;;5.18;43.98;100138.27;1758442;80;21029;-68
2022/01/13 11:43:37;;;;;;;19.07;16.10;;;;;;;5.19;43.96;100144.70;1752557;80;21143;-67
2022/01/13 11:46:21;;;;;;;21.40;16.95;;;;;;;5.21;43.96;100134.88;1762199;79;21584;-66
2022/01/13 11:49:07;;;;;;;19.77;16.32;;;;;;;5.23;43.96;100133.45;1765144;80;21039;-64
2022/01/13 11:51:47;;;;;;;22.45;17.55;;;;;;;5.24;43.99;100129.38;1769507;80;21129;-70
2022/01/13 11:54:33;;;;;;;23.57;17.12;;;;;;;5.26;44.01;100143.27;1769718;78;21040;-65